Time;durP1;ratioP1;P1;durP2;ratioP2;P2;SDS_P1;SDS_P2;PMS_P1;PMS_P2;Temp;Humidity;BMP_temperature;BMP_pressure;BME280_temperature;BME280_humidity;BME280_pressure;Samples;Min_cycle;Max_cycle;Signal;HPM_P1;HPM_P2
2022/01/05 00:01:15;;;;;;;;;28.00;28.00;;;;;;;;5255667;28;10259;-66
2022/01/05 00:03:46;;;;;;;;;17.33;17.33;;;;;;;;5272405;28;9190;-67
2022/01/05 00:06:18;;;;;;;;;7.33;7.33;;;;;;;;5272714;28;10267;-66
2022/01/05 00:08:49;;;;;;;;;10.50;10.00;;;;;;;;5272405;28;9426;-67
2022/01/05 00:11:40;;;;;;;;;8.33;7.67;;;;;;;;5258728;28;8881;-66
2022/01/05 00:14:12;;;;;;;;;5.33;4.00;;;;;;;;5255230;28;8853;-67
2022/01/05 00:17:01;;;;;;;;;17.00;16.33;;;;;;;;5272482;28;9031;-67
2022/01/05 00:19:34;;;;;;;;;18.33;18.33;;;;;;;;5238671;28;9014;-67
2022/01/05 00:22:07;;;;;;;;;14.50;13.75;;;;;;;;5255557;28;9691;-67
2022/01/05 00:24:38;;;;;;;;;7.50;7.50;;;;;;;;5289999;28;8792;-67
2022/01/05 00:27:08;;;;;;;;;7.67;7.00;;;;;;;;5256172;28;8831;-68
2022/01/05 00:29:39;;;;;;;;;7.00;7.00;;;;;;;;5293417;28;9499;-67
2022/01/05 00:32:10;;;;;;;;;10.00;10.00;;;;;;;;5290987;28;8819;-67
2022/01/05 00:34:41;;;;;;;;;12.00;12.00;;;;;;;;5255110;28;11429;-68
2022/01/05 00:37:12;;;;;;;;;15.00;12.50;;;;;;;;5238536;28;9788;-69
2022/01/05 00:39:43;;;;;;;;;19.67;19.33;;;;;;;;5290238;28;8795;-68
2022/01/05 00:42:15;;;;;;;;;15.67;15.67;;;;;;;;5271854;28;8947;-68
2022/01/05 00:44:46;;;;;;;;;19.00;18.00;;;;;;;;5289876;28;9010;-68
2022/01/05 00:47:17;;;;;;;;;6.00;4.00;;;;;;;;5271498;28;9276;-68
2022/01/05 00:50:07;;;;;;;;;18.33;16.67;;;;;;;;5289653;28;8765;-68
2022/01/05 00:52:38;;;;;;;;;17.25;14.25;;;;;;;;5254573;28;8904;-68
2022/01/05 00:55:09;;;;;;;;;16.00;16.00;;;;;;;;5254735;28;8826;-69
2022/01/05 00:57:40;;;;;;;;;27.33;27.33;;;;;;;;5271245;28;8889;-68
2022/01/05 01:00:11;;;;;;;;;46.00;37.67;;;;;;;;5271412;28;10045;-68
2022/01/05 01:02:42;;;;;;;;;42.33;41.33;;;;;;;;5271857;28;8765;-68
2022/01/05 01:05:32;;;;;;;;;24.67;24.67;;;;;;;;5257067;28;9638;-69
2022/01/05 01:08:03;;;;;;;;;19.00;18.33;;;;;;;;5237803;28;9498;-69
2022/01/05 01:10:33;;;;;;;;;25.67;25.00;;;;;;;;5271397;28;8801;-67
2022/01/05 01:13:05;;;;;;;;;4.00;4.00;;;;;;;;5289389;28;9478;-68
2022/01/05 01:15:35;;;;;;;;;15.33;15.00;;;;;;;;5237389;28;8894;-68
2022/01/05 01:18:25;;;;;;;;;19.00;19.00;;;;;;;;5289516;28;9423;-68
2022/01/05 01:20:56;;;;;;;;;9.67;9.33;;;;;;;;5254279;28;9222;-68
2022/01/05 01:23:27;;;;;;;;;9.67;9.67;;;;;;;;5270724;28;10002;-68
2022/01/05 01:25:59;;;;;;;;;10.67;10.67;;;;;;;;5236931;28;11417;-68
2022/01/05 01:28:30;;;;;;;;;24.33;21.00;;;;;;;;5237557;28;8947;-68
2022/01/05 01:31:01;;;;;;;;;16.00;15.00;;;;;;;;5271059;28;8883;-68
2022/01/05 01:33:32;;;;;;;;;20.00;18.67;;;;;;;;5270665;28;9415;-67
2022/01/05 01:36:04;;;;;;;;;32.33;28.33;;;;;;;;5254164;28;12082;-68
2022/01/05 01:38:35;;;;;;;;;16.67;16.00;;;;;;;;5254210;28;9958;-67
2022/01/05 01:41:06;;;;;;;;;25.00;21.33;;;;;;;;5253781;28;9144;-68
2022/01/05 01:43:38;;;;;;;;;16.00;15.33;;;;;;;;5270341;28;9742;-67
2022/01/05 01:46:09;;;;;;;;;16.00;15.00;;;;;;;;5270701;28;8939;-68
2022/01/05 01:48:41;;;;;;;;;13.67;12.33;;;;;;;;5253493;28;8878;-68
2022/01/05 01:51:14;;;;;;;;;9.00;9.00;;;;;;;;5270683;28;9137;-68
2022/01/05 01:53:45;;;;;;;;;4.75;4.75;;;;;;;;5253557;28;9018;-67
2022/01/05 01:56:35;;;;;;;;;10.00;8.67;;;;;;;;5256848;28;8760;-66
2022/01/05 01:59:07;;;;;;;;;13.67;12.67;;;;;;;;5253027;28;9175;-66
2022/01/05 02:01:40;;;;;;;;;24.67;23.33;;;;;;;;5253645;28;9021;-67
2022/01/05 02:04:11;;;;;;;;;24.33;24.33;;;;;;;;5270122;28;9141;-67
2022/01/05 02:06:41;;;;;;;;;24.00;24.00;;;;;;;;5288351;28;9336;-67
2022/01/05 02:09:12;;;;;;;;;47.00;44.75;;;;;;;;5269836;28;8823;-67
2022/01/05 02:11:43;;;;;;;;;61.75;51.50;;;;;;;;5288949;28;8779;-68
2022/01/05 02:14:14;;;;;;;;;66.00;48.50;;;;;;;;5270475;28;8784;-67
2022/01/05 02:16:45;;;;;;;;;58.75;49.00;;;;;;;;5288179;28;8806;-67
2022/01/05 02:19:35;;;;;;;;;21.00;21.00;;;;;;;;5289084;28;10736;-68
2022/01/05 02:22:07;;;;;;;;;23.33;23.33;;;;;;;;5253489;28;9560;-68
2022/01/05 02:24:38;;;;;;;;;23.00;22.67;;;;;;;;5236507;28;10134;-67
2022/01/05 02:27:09;;;;;;;;;90.00;71.00;;;;;;;;5270518;28;9648;-67
2022/01/05 02:29:40;;;;;;;;;93.00;76.00;;;;;;;;5288068;28;11464;-68
2022/01/05 02:32:11;;;;;;;;;99.00;75.50;;;;;;;;5236450;28;11484;-68
2022/01/05 02:35:01;;;;;;;;;85.75;68.50;;;;;;;;5288301;28;11551;-68
2022/01/05 02:37:39;;;;;;;;;78.25;65.00;;;;;;;;5269860;28;11478;-67
2022/01/05 02:40:10;;;;;;;;;65.00;52.50;;;;;;;;5292122;28;11417;-67
2022/01/05 02:42:42;;;;;;;;;69.00;52.50;;;;;;;;5274071;28;11220;-67
2022/01/05 02:45:14;;;;;;;;;40.00;34.75;;;;;;;;5257139;28;11080;-67
2022/01/05 02:47:45;;;;;;;;;34.00;34.00;;;;;;;;5292296;28;10537;-67
2022/01/05 02:50:16;;;;;;;;;18.67;18.67;;;;;;;;5273450;28;10141;-66
2022/01/05 02:52:47;;;;;;;;;6.00;6.00;;;;;;;;5274272;28;9543;-66
2022/01/05 02:55:18;;;;;;;;;10.00;10.00;;;;;;;;5273906;28;9132;-66
2022/01/05 02:57:50;;;;;;;;;9.00;9.00;;;;;;;;5291895;28;9062;-66
2022/01/05 03:00:21;;;;;;;;;9.33;9.33;;;;;;;;5291599;28;8954;-67
2022/01/05 03:03:10;;;;;;;;;6.00;6.00;;;;;;;;5292201;28;9007;-68
2022/01/05 03:05:42;;;;;;;;;9.00;9.00;;;;;;;;5274133;28;8887;-67
2022/01/05 03:08:14;;;;;;;;;7.67;7.00;;;;;;;;5273855;28;9201;-67
2022/01/05 03:10:45;;;;;;;;;0.67;0.67;;;;;;;;5274118;28;9096;-67
2022/01/05 03:13:35;;;;;;;;;7.67;7.67;;;;;;;;5273684;28;9053;-68
2022/01/05 03:16:25;;;;;;;;;9.25;8.00;;;;;;;;5292019;28;8876;-67
2022/01/05 03:19:14;;;;;;;;;9.33;9.33;;;;;;;;5273726;28;8765;-68
2022/01/05 03:21:45;;;;;;;;;6.67;6.67;;;;;;;;5239976;28;8847;-68
2022/01/05 03:24:16;;;;;;;;;11.67;11.67;;;;;;;;5273315;28;9043;-68
2022/01/05 03:26:47;;;;;;;;;12.33;12.33;;;;;;;;5256637;28;8784;-66
2022/01/05 03:29:18;;;;;;;;;13.00;13.00;;;;;;;;5273084;28;8959;-67
2022/01/05 03:31:49;;;;;;;;;12.33;12.33;;;;;;;;5273051;28;8788;-66
2022/01/05 03:34:21;;;;;;;;;6.67;6.67;;;;;;;;5273619;28;8774;-66
2022/01/05 03:36:52;;;;;;;;;7.00;6.00;;;;;;;;5291155;28;9028;-66
2022/01/05 03:39:41;;;;;;;;;11.00;10.75;;;;;;;;5292013;28;8932;-66
2022/01/05 03:42:12;;;;;;;;;6.33;6.33;;;;;;;;5290978;28;8800;-67
2022/01/05 03:44:43;;;;;;;;;12.33;12.33;;;;;;;;5272446;28;8951;-67
2022/01/05 03:47:14;;;;;;;;;12.67;12.33;;;;;;;;5291073;28;8848;-67
2022/01/05 03:49:45;;;;;;;;;10.00;10.00;;;;;;;;5254792;28;8799;-67
2022/01/05 03:52:16;;;;;;;;;13.67;13.00;;;;;;;;5290624;28;11409;-69
2022/01/05 03:54:47;;;;;;;;;7.00;6.00;;;;;;;;5256141;28;11571;-69
2022/01/05 03:57:36;;;;;;;;;19.67;19.00;;;;;;;;5257793;28;9052;-68
2022/01/05 04:00:09;;;;;;;;;19.67;19.00;;;;;;;;5272844;28;9050;-68
2022/01/05 04:02:48;;;;;;;;;17.33;16.67;;;;;;;;5273131;28;8929;-67
2022/01/05 04:05:19;;;;;;;;;22.67;20.33;;;;;;;;5272455;28;8856;-67
2022/01/05 04:08:09;;;;;;;;;10.75;10.50;;;;;;;;5258057;28;8785;-67
2022/01/05 04:10:39;;;;;;;;;16.67;16.67;;;;;;;;5272380;28;9475;-67
2022/01/05 04:13:11;;;;;;;;;12.00;10.67;;;;;;;;5272249;28;9263;-69
2022/01/05 04:15:42;;;;;;;;;10.00;10.00;;;;;;;;5239236;28;9482;-67
2022/01/05 04:18:13;;;;;;;;;19.00;16.75;;;;;;;;5272141;28;9114;-67
2022/01/05 04:20:44;;;;;;;;;14.33;14.33;;;;;;;;5238771;28;8903;-67
2022/01/05 04:23:33;;;;;;;;;14.67;14.67;;;;;;;;5272238;28;11550;-68
2022/01/05 04:26:04;;;;;;;;;13.00;12.50;;;;;;;;5255657;28;8937;-65
2022/01/05 04:28:54;;;;;;;;;13.00;10.67;;;;;;;;5274698;28;8804;-67
2022/01/05 04:31:25;;;;;;;;;12.00;12.00;;;;;;;;5272167;28;8950;-67
2022/01/05 04:33:57;;;;;;;;;16.00;15.33;;;;;;;;5254982;28;8923;-69
2022/01/05 04:36:29;;;;;;;;;11.00;11.00;;;;;;;;5255209;28;8928;-69
2022/01/05 04:39:18;;;;;;;;;12.00;12.00;;;;;;;;5274659;28;8858;-69
2022/01/05 04:42:08;;;;;;;;;10.00;9.00;;;;;;;;5271961;28;8940;-68
2022/01/05 04:44:39;;;;;;;;;4.00;4.00;;;;;;;;5271801;28;8967;-69
2022/01/05 04:47:12;;;;;;;;;10.00;10.00;;;;;;;;5254570;28;8881;-67
2022/01/05 04:49:43;;;;;;;;;8.67;8.67;;;;;;;;5254886;28;8914;-67
2022/01/05 04:52:14;;;;;;;;;9.67;8.67;;;;;;;;5254727;28;9073;-67
2022/01/05 04:54:46;;;;;;;;;12.00;12.00;;;;;;;;5289692;28;8788;-66
2022/01/05 04:57:17;;;;;;;;;6.33;6.33;;;;;;;;5271152;28;8836;-67
2022/01/05 04:59:48;;;;;;;;;7.00;6.67;;;;;;;;5289797;28;9689;-67
2022/01/05 05:06:42;;;;;;;;;7.67;7.67;;;;;;;;5289457;28;11344;-67
2022/01/05 05:09:13;;;;;;;;;7.00;7.00;;;;;;;;5272350;28;9336;-67
2022/01/05 05:11:44;;;;;;;;;11.33;11.33;;;;;;;;5274390;28;9510;-66
2022/01/05 05:14:15;;;;;;;;;15.00;12.00;;;;;;;;5271508;28;9369;-68
2022/01/05 05:16:47;;;;;;;;;15.67;15.67;;;;;;;;5270846;28;9335;-67
2022/01/05 05:19:18;;;;;;;;;27.33;25.33;;;;;;;;5288908;28;9197;-65
2022/01/05 05:21:50;;;;;;;;;6.33;6.33;;;;;;;;5270866;28;10533;-66
2022/01/05 05:24:21;;;;;;;;;9.67;9.67;;;;;;;;5289197;28;9577;-68
2022/01/05 05:26:52;;;;;;;;;7.67;7.67;;;;;;;;5288917;28;9499;-68
2022/01/05 05:29:23;;;;;;;;;10.67;10.00;;;;;;;;5288942;28;9284;-67
2022/01/05 05:31:54;;;;;;;;;10.00;10.00;;;;;;;;5271043;28;11454;-68
2022/01/05 05:34:25;;;;;;;;;3.00;3.00;;;;;;;;5289292;28;9301;-67
2022/01/05 05:36:56;;;;;;;;;9.67;9.67;;;;;;;;5288792;28;9350;-68
2022/01/05 05:39:27;;;;;;;;;9.00;9.00;;;;;;;;5270531;28;9263;-68
2022/01/05 05:41:59;;;;;;;;;12.00;12.00;;;;;;;;5236901;28;11522;-68
2022/01/05 05:44:31;;;;;;;;;10.00;10.00;;;;;;;;5253863;28;9347;-68
2022/01/05 05:47:02;;;;;;;;;11.33;11.33;;;;;;;;5270778;28;9014;-69
2022/01/05 05:49:34;;;;;;;;;50.25;45.25;;;;;;;;5288860;28;9794;-67
2022/01/05 05:52:06;;;;;;;;;7.75;6.50;;;;;;;;5270158;28;10390;-67
2022/01/05 05:54:37;;;;;;;;;11.33;11.33;;;;;;;;5253918;28;10414;-69
2022/01/05 05:57:09;;;;;;;;;4.67;4.67;;;;;;;;5253311;28;9184;-68
2022/01/05 05:59:40;;;;;;;;;10.00;10.00;;;;;;;;5289153;28;9020;-68
2022/01/05 06:02:11;;;;;;;;;11.00;11.00;;;;;;;;5289031;28;8930;-69
2022/01/05 06:04:42;;;;;;;;;10.25;10.25;;;;;;;;5270796;28;8792;-67
2022/01/05 06:07:13;;;;;;;;;5.00;5.00;;;;;;;;5270515;28;8804;-68
2022/01/05 06:09:45;;;;;;;;;19.67;19.33;;;;;;;;5270493;28;10241;-66
2022/01/05 06:12:16;;;;;;;;;30.00;27.67;;;;;;;;5269820;28;8975;-66
2022/01/05 06:23:46;;;;;;;;;37.00;34.00;;;;;;;;5309297;27;9558;-68
2022/01/05 06:26:17;;;;;;;;;33.00;32.00;;;;;;;;5291384;27;9560;-68
2022/01/05 06:28:48;;;;;;;;;32.00;30.33;;;;;;;;5309836;27;9655;-67
2022/01/05 06:31:19;;;;;;;;;44.33;37.67;;;;;;;;5309072;27;11465;-68
2022/01/05 06:34:08;;;;;;;;;52.67;46.33;;;;;;;;5309638;27;10594;-67
2022/01/05 06:36:39;;;;;;;;;44.67;43.33;;;;;;;;5290774;27;10033;-68
2022/01/05 06:39:11;;;;;;;;;43.67;39.33;;;;;;;;5309943;27;8801;-68
2022/01/05 06:41:42;;;;;;;;;50.25;46.00;;;;;;;;5291570;27;8928;-68
2022/01/05 06:44:13;;;;;;;;;37.50;36.25;;;;;;;;5309067;27;9732;-68
2022/01/05 06:46:44;;;;;;;;;43.33;41.67;;;;;;;;5290748;27;8789;-68
2022/01/05 06:49:15;;;;;;;;;55.50;47.00;;;;;;;;5291300;27;9531;-67
2022/01/05 06:56:09;;;;;;;;;31.25;30.50;;;;;;;;5309017;27;8702;-68
2022/01/05 06:58:40;;;;;;;;;48.25;41.25;;;;;;;;5309321;27;9741;-68
2022/01/05 07:01:29;;;;;;;;;42.25;40.50;;;;;;;;5309086;27;11517;-68
2022/01/05 07:04:02;;;;;;;;;44.00;42.50;;;;;;;;5291256;27;10030;-68
2022/01/05 07:06:33;;;;;;;;;31.25;13.25;;;;;;;;5273744;27;9566;-68
2022/01/05 07:09:05;;;;;;;;;43.33;36.00;;;;;;;;5273931;27;10293;-67
2022/01/05 07:11:36;;;;;;;;;70.75;55.25;;;;;;;;5309183;27;10317;-68
2022/01/05 07:14:07;;;;;;;;;54.75;48.50;;;;;;;;5273961;27;10659;-68
2022/01/05 07:16:38;;;;;;;;;51.00;46.50;;;;;;;;5308690;27;8770;-69
2022/01/05 07:19:09;;;;;;;;;46.25;43.00;;;;;;;;5290253;27;12209;-69
2022/01/05 07:21:40;;;;;;;;;62.00;53.00;;;;;;;;5309374;27;8770;-69
2022/01/05 07:24:13;;;;;;;;;41.33;41.33;;;;;;;;5308680;27;8874;-69
2022/01/05 07:26:44;;;;;;;;;47.33;39.67;;;;;;;;5277623;27;8770;-68
2022/01/05 07:29:33;;;;;;;;;28.67;27.00;;;;;;;;5312576;27;9563;-69
2022/01/05 07:32:05;;;;;;;;;35.33;35.33;;;;;;;;5313429;27;9545;-69
2022/01/05 07:34:35;;;;;;;;;25.67;24.33;;;;;;;;5312409;27;8778;-68
2022/01/05 07:37:06;;;;;;;;;31.00;29.00;;;;;;;;5293577;27;9320;-69
2022/01/05 07:39:37;;;;;;;;;32.33;32.33;;;;;;;;5312695;27;8839;-69
2022/01/05 07:42:08;;;;;;;;;37.67;32.67;;;;;;;;5312715;27;8797;-68
2022/01/05 07:44:39;;;;;;;;;45.00;40.00;;;;;;;;5293794;27;11412;-68
2022/01/05 07:47:10;;;;;;;;;32.67;31.33;;;;;;;;5293402;27;11437;-69
2022/01/05 07:49:41;;;;;;;;;28.33;25.33;;;;;;;;5293650;27;9441;-69
2022/01/05 07:52:12;;;;;;;;;28.00;24.67;;;;;;;;5294080;27;9308;-69
2022/01/05 07:54:42;;;;;;;;;24.33;24.33;;;;;;;;5293971;27;9540;-69
2022/01/05 07:57:14;;;;;;;;;26.00;21.67;;;;;;;;5293815;27;8862;-69
2022/01/05 07:59:45;;;;;;;;;21.33;21.33;;;;;;;;5312111;27;8873;-69
2022/01/05 08:02:16;;;;;;;;;28.00;27.67;;;;;;;;5276861;27;9079;-68
2022/01/05 08:04:49;;;;;;;;;32.33;29.33;;;;;;;;5311825;27;9414;-67
2022/01/05 08:07:19;;;;;;;;;17.67;17.00;;;;;;;;5293707;27;8913;-67
2022/01/05 08:09:50;;;;;;;;;27.33;27.33;;;;;;;;5276573;27;9822;-65
2022/01/05 08:12:21;;;;;;;;;29.67;29.67;;;;;;;;5311975;27;11439;-70
2022/01/05 08:14:52;;;;;;;;;19.67;19.00;;;;;;;;5293836;27;11569;-69
2022/01/05 08:17:23;;;;;;;;;16.33;13.33;;;;;;;;5311975;27;8798;-69
2022/01/05 08:19:54;;;;;;;;;19.67;19.00;;;;;;;;5311652;27;9572;-69
2022/01/05 08:22:25;;;;;;;;;18.67;18.67;;;;;;;;5312058;27;11425;-69
2022/01/05 08:24:56;;;;;;;;;14.25;12.75;;;;;;;;5276470;27;8777;-69
2022/01/05 08:27:27;;;;;;;;;10.67;10.67;;;;;;;;5293731;27;8805;-69
2022/01/05 08:30:04;;;;;;;;;21.00;19.00;;;;;;;;5311339;27;11468;-70
2022/01/05 08:32:36;;;;;;;;;11.25;10.25;;;;;;;;5293460;27;8782;-69
2022/01/05 08:35:07;;;;;;;;;15.00;14.33;;;;;;;;5311165;27;8805;-69
2022/01/05 08:37:39;;;;;;;;;31.50;30.75;;;;;;;;5292859;27;8778;-70
2022/01/05 08:40:18;;;;;;;;;37.67;33.67;;;;;;;;5276696;27;9496;-69
2022/01/05 08:42:49;;;;;;;;;34.67;33.33;;;;;;;;5293364;27;9022;-70
2022/01/05 08:45:20;;;;;;;;;15.75;13.75;;;;;;;;5258955;27;8934;-69
2022/01/05 08:47:52;;;;;;;;;16.25;16.00;;;;;;;;5258837;27;9511;-70
2022/01/05 08:50:24;;;;;;;;;7.00;6.75;;;;;;;;5275309;27;8944;-70
2022/01/05 08:52:57;;;;;;;;;8.75;8.75;;;;;;;;5276418;27;8785;-71
2022/01/05 08:55:30;;;;;;;;;25.00;24.50;;;;;;;;5310540;27;8805;-70
2022/01/05 08:58:01;;;;;;;;;22.50;22.50;;;;;;;;5310786;27;8806;-69
2022/01/05 09:00:50;;;;;;;;;19.75;18.75;;;;;;;;5292926;27;8791;-70
2022/01/05 09:03:40;;;;;;;;;19.75;19.00;;;;;;;;5310918;27;8842;-70
2022/01/05 09:06:11;;;;;;;;;24.25;23.00;;;;;;;;5310663;27;8782;-71
2022/01/05 09:08:42;;;;;;;;;22.00;21.00;;;;;;;;5275111;27;8832;-70
2022/01/05 09:11:13;;;;;;;;;27.00;25.00;;;;;;;;5310403;27;8914;-69
2022/01/05 09:13:44;;;;;;;;;22.25;19.75;;;;;;;;5258188;27;8782;-70
2022/01/05 09:20:38;;;;;;;;;23.00;20.00;;;;;;;;5310366;27;8690;-69
2022/01/05 09:23:08;;;;;;;;;60.00;50.25;;;;;;;;5291966;27;8778;-69
2022/01/05 09:25:39;;;;;;;;;39.67;39.33;;;;;;;;5310067;27;8770;-72
2022/01/05 09:28:10;;;;;;;;;30.67;29.33;;;;;;;;5274801;27;8802;-69
2022/01/05 09:30:45;;;;;;;;;28.33;25.33;;;;;;;;5310072;27;9100;-69
2022/01/05 09:33:16;;;;;;;;;19.00;17.33;;;;;;;;5292347;27;8867;-71
2022/01/05 09:35:49;;;;;;;;;21.00;20.25;;;;;;;;5274725;27;8869;-72
2022/01/05 09:38:36;;;;;;;;;26.50;24.50;;;;;;;;5275997;27;8770;-71
2022/01/05 09:44:15;;;;;;;;;18.25;16.00;;;;;;;;5292438;27;8897;-71
2022/01/05 09:46:58;;;;;;;;;17.00;15.75;;;;;;;;5292150;27;8842;-72
2022/01/05 09:49:34;;;;;;;;;11.00;10.50;;;;;;;;5275922;27;8877;-71
2022/01/05 09:52:24;;;;;;;;;12.00;12.00;;;;;;;;5297330;27;8774;-71
2022/01/05 09:54:55;;;;;;;;;9.25;9.00;;;;;;;;5275373;27;8769;-70
2022/01/05 09:57:27;;;;;;;;;15.00;14.50;;;;;;;;5274225;27;9473;-68
2022/01/05 09:59:59;;;;;;;;;18.00;17.50;;;;;;;;5257983;27;8782;-70
2022/01/05 10:02:30;;;;;;;;;16.00;16.00;;;;;;;;5257615;27;8779;-70
2022/01/05 10:05:07;;;;;;;;;31.67;31.00;;;;;;;;5291109;27;8774;-69
2022/01/05 10:07:38;;;;;;;;;61.00;42.33;;;;;;;;5291058;27;8906;-71
2022/01/05 10:14:33;;;;;;;;;33.67;33.67;;;;;;;;5309357;27;11495;-69
2022/01/05 10:17:08;;;;;;;;;23.33;22.00;;;;;;;;5309546;27;9243;-68
2022/01/05 10:19:40;;;;;;;;;31.67;31.67;;;;;;;;5290964;27;9506;-69
2022/01/05 10:22:34;;;;;;;;;12.75;12.75;;;;;;;;5310153;27;9075;-70
2022/01/05 10:25:13;;;;;;;;;14.75;13.00;;;;;;;;5280021;27;9393;-70
2022/01/05 10:27:54;;;;;;;;;17.75;17.25;;;;;;;;5258182;27;8850;-70
2022/01/05 10:30:36;;;;;;;;;18.50;18.00;;;;;;;;5257558;27;8746;-70
2022/01/05 10:33:07;;;;;;;;;25.00;24.25;;;;;;;;5274280;27;8754;-70
2022/01/05 10:35:38;;;;;;;;;22.00;18.75;;;;;;;;5309372;27;8812;-70
2022/01/05 10:38:09;;;;;;;;;24.67;24.00;;;;;;;;5273912;27;8795;-70
2022/01/05 10:40:42;;;;;;;;;24.00;24.00;;;;;;;;5290945;27;8790;-72
2022/01/05 10:43:13;;;;;;;;;20.00;20.00;;;;;;;;5274092;27;11451;-70
2022/01/05 10:45:48;;;;;;;;;14.25;13.75;;;;;;;;5274696;27;8798;-68
2022/01/05 10:48:21;;;;;;;;;10.25;9.25;;;;;;;;5291879;27;8809;-71
2022/01/05 10:51:03;;;;;;;;;10.75;10.75;;;;;;;;5257029;27;8766;-70
2022/01/05 10:53:33;;;;;;;;;21.00;17.00;;;;;;;;5308968;27;9465;-70
2022/01/05 10:56:04;;;;;;;;;24.00;22.33;;;;;;;;5274436;27;8782;-71
2022/01/05 10:58:43;;;;;;;;;23.33;19.33;;;;;;;;5309777;27;9628;-70
2022/01/05 11:01:28;;;;;;;;;14.00;13.50;;;;;;;;5294993;27;9583;-70
2022/01/05 11:03:59;;;;;;;;;17.75;16.75;;;;;;;;5260974;27;8770;-70
2022/01/05 11:06:29;;;;;;;;;20.67;20.33;;;;;;;;5295137;27;8843;-70
2022/01/05 11:09:19;;;;;;;;;11.00;11.00;;;;;;;;5295256;27;11468;-70
2022/01/05 11:11:50;;;;;;;;;10.50;10.50;;;;;;;;5294979;27;8786;-69
2022/01/05 11:14:30;;;;;;;;;15.75;10.50;;;;;;;;5313340;27;8797;-70
2022/01/05 11:17:02;;;;;;;;;15.50;14.50;;;;;;;;5278477;27;8771;-69
2022/01/05 11:19:35;;;;;;;;;12.50;12.50;;;;;;;;5294694;27;8786;-70
2022/01/05 11:22:14;;;;;;;;;18.50;17.75;;;;;;;;5312576;27;8801;-70
2022/01/05 11:24:47;;;;;;;;;17.50;17.00;;;;;;;;5295154;27;8876;-69
2022/01/05 11:27:19;;;;;;;;;34.00;31.75;;;;;;;;5312637;27;8778;-69
2022/01/05 11:29:50;;;;;;;;;24.00;24.00;;;;;;;;5313208;27;8790;-72
2022/01/05 11:32:23;;;;;;;;;19.75;18.50;;;;;;;;5277007;27;8805;-69
2022/01/05 11:35:12;;;;;;;;;29.00;28.25;;;;;;;;5297398;27;8758;-72
2022/01/05 11:37:43;;;;;;;;;28.00;25.00;;;;;;;;5294363;27;8786;-69
2022/01/05 11:40:16;;;;;;;;;23.50;22.00;;;;;;;;5294568;27;8831;-72
2022/01/05 11:43:08;;;;;;;;;20.50;20.50;;;;;;;;5279854;27;8786;-71
2022/01/05 11:45:47;;;;;;;;;10.75;9.50;;;;;;;;5260295;27;8774;-78
2022/01/05 11:48:40;;;;;;;;;15.50;15.50;;;;;;;;5279644;27;8909;-70
2022/01/05 11:51:10;;;;;;;;;10.25;10.25;;;;;;;;5312955;27;8774;-71
2022/01/05 11:53:45;;;;;;;;;15.00;14.67;;;;;;;;5260358;27;8838;-70
2022/01/05 11:56:20;;;;;;;;;22.75;21.25;;;;;;;;5260073;27;9552;-70
2022/01/05 11:58:55;;;;;;;;;26.75;26.50;;;;;;;;5259765;27;8799;-69
2022/01/05 12:01:34;;;;;;;;;21.00;20.50;;;;;;;;5293834;27;8758;-69
2022/01/05 12:04:09;;;;;;;;;12.50;12.50;;;;;;;;5260962;27;8758;-70
2022/01/05 12:07:01;;;;;;;;;9.00;9.00;;;;;;;;5276562;27;8774;-72
2022/01/05 12:09:33;;;;;;;;;12.00;9.75;;;;;;;;5276872;27;8786;-72
2022/01/05 12:12:35;;;;;;;;;15.25;13.50;;;;;;;;5258746;27;8920;-72
2022/01/05 12:15:06;;;;;;;;;12.50;12.50;;;;;;;;5294709;27;8790;-71
2022/01/05 12:17:37;;;;;;;;;20.33;18.67;;;;;;;;5276375;27;8786;-71
2022/01/05 12:20:08;;;;;;;;;14.50;12.00;;;;;;;;5259952;27;8889;-69
2022/01/05 12:22:39;;;;;;;;;19.50;19.50;;;;;;;;5259563;27;8780;-71
2022/01/05 12:25:29;;;;;;;;;18.50;18.50;;;;;;;;5296285;27;8779;-69
2022/01/05 12:28:02;;;;;;;;;17.33;15.67;;;;;;;;5293604;27;8820;-70
2022/01/05 12:30:36;;;;;;;;;15.75;15.75;;;;;;;;5293698;27;8778;-71
2022/01/05 12:33:09;;;;;;;;;17.33;17.33;;;;;;;;5275921;27;8785;-70
2022/01/05 12:36:00;;;;;;;;;11.75;10.50;;;;;;;;5311573;27;8844;-70
2022/01/05 12:38:33;;;;;;;;;15.00;15.00;;;;;;;;5259053;27;8784;-70
2022/01/05 12:41:23;;;;;;;;;17.25;15.50;;;;;;;;5311421;27;8882;-69
2022/01/05 12:43:55;;;;;;;;;18.50;18.50;;;;;;;;5275861;27;8801;-68
2022/01/05 12:46:32;;;;;;;;;18.67;18.67;;;;;;;;5259309;27;8774;-68
2022/01/05 12:49:05;;;;;;;;;39.33;37.67;;;;;;;;5293248;27;8950;-69
2022/01/05 12:51:39;;;;;;;;;31.00;30.67;;;;;;;;5292564;27;9724;-70
2022/01/05 12:54:10;;;;;;;;;27.33;25.67;;;;;;;;5258935;27;9270;-70
2022/01/05 12:57:03;;;;;;;;;25.33;25.00;;;;;;;;5292756;27;9082;-70
2022/01/05 12:59:39;;;;;;;;;25.00;24.33;;;;;;;;5258504;27;9057;-70
2022/01/05 13:02:30;;;;;;;;;23.33;21.67;;;;;;;;5271238;28;9178;-70
2022/01/05 13:05:02;;;;;;;;;25.33;16.67;;;;;;;;5310562;27;9016;-69
2022/01/05 13:07:39;;;;;;;;;29.33;25.67;;;;;;;;5254495;28;10278;-69
2022/01/05 13:10:13;;;;;;;;;34.67;34.00;;;;;;;;5237644;28;9378;-70
2022/01/05 13:12:44;;;;;;;;;29.33;27.67;;;;;;;;5271177;28;9474;-69
2022/01/05 13:15:17;;;;;;;;;22.33;22.33;;;;;;;;5254123;28;9397;-70
2022/01/05 13:17:48;;;;;;;;;30.67;26.33;;;;;;;;5237751;28;9403;-70
2022/01/05 13:20:19;;;;;;;;;26.33;26.33;;;;;;;;5271078;28;9409;-70
2022/01/05 13:22:53;;;;;;;;;18.67;18.67;;;;;;;;5288861;28;8765;-70
2022/01/05 13:25:42;;;;;;;;;31.00;29.33;;;;;;;;5257212;28;8748;-70
2022/01/05 13:28:14;;;;;;;;;30.00;30.00;;;;;;;;5289265;28;9342;-70
2022/01/05 13:30:46;;;;;;;;;34.00;33.33;;;;;;;;5271339;28;8797;-72
2022/01/05 13:33:17;;;;;;;;;14.33;13.00;;;;;;;;5288848;28;10117;-69
2022/01/05 13:35:48;;;;;;;;;34.33;32.67;;;;;;;;5289374;28;9242;-70
2022/01/05 13:38:19;;;;;;;;;38.33;36.33;;;;;;;;5288873;28;8794;-70
2022/01/05 13:40:53;;;;;;;;;39.00;34.00;;;;;;;;5270441;28;8777;-69
2022/01/05 13:43:26;;;;;;;;;35.33;31.67;;;;;;;;5270429;28;8910;-70
2022/01/05 13:45:58;;;;;;;;;29.33;27.67;;;;;;;;5289052;28;9436;-70
2022/01/05 13:48:30;;;;;;;;;20.33;19.67;;;;;;;;5270436;28;9556;-70
2022/01/05 13:51:07;;;;;;;;;27.67;27.67;;;;;;;;5236680;28;9201;-69
2022/01/05 13:53:44;;;;;;;;;27.67;26.33;;;;;;;;5270492;28;9229;-70
2022/01/05 13:56:15;;;;;;;;;21.00;20.67;;;;;;;;5289224;28;9187;-69
2022/01/05 13:58:54;;;;;;;;;1.00;0.25;;;;;;;;5288680;28;9079;-70
2022/01/05 14:01:25;;;;;;;;;20.33;20.33;;;;;;;;5237083;28;8792;-70
2022/01/05 14:03:57;;;;;;;;;25.67;24.00;;;;;;;;5288186;28;9854;-70
2022/01/05 14:06:29;;;;;;;;;22.00;18.67;;;;;;;;5288328;28;8765;-70
2022/01/05 14:09:03;;;;;;;;;22.00;22.00;;;;;;;;5270289;28;9275;-70
2022/01/05 14:11:35;;;;;;;;;14.33;12.67;;;;;;;;5270341;28;9216;-70
2022/01/05 14:14:24;;;;;;;;;6.67;5.33;;;;;;;;5273537;28;9055;-70
2022/01/05 14:16:55;;;;;;;;;12.50;12.50;;;;;;;;5269855;28;9780;-71
2022/01/05 14:19:28;;;;;;;;;15.00;15.00;;;;;;;;5236512;28;8802;-70
2022/01/05 14:26:40;;;;;;;;;13.33;10.67;;;;;;;;5288153;28;8712;-69
2022/01/05 14:29:11;;;;;;;;;16.00;15.00;;;;;;;;5253099;28;9045;-70
2022/01/05 14:31:42;;;;;;;;;9.67;9.67;;;;;;;;5236904;28;9088;-68
2022/01/05 14:34:22;;;;;;;;;12.00;12.00;;;;;;;;5239400;28;8793;-70
2022/01/05 14:37:01;;;;;;;;;11.33;11.33;;;;;;;;5241968;28;8849;-70
2022/01/05 14:39:37;;;;;;;;;15.67;15.33;;;;;;;;5293302;28;9105;-71
2022/01/05 14:42:12;;;;;;;;;8.50;7.25;;;;;;;;5274832;28;8946;-71
2022/01/05 14:44:46;;;;;;;;;14.00;14.00;;;;;;;;5240524;28;8801;-70
2022/01/05 14:51:41;;;;;;;;;11.50;11.50;;;;;;;;5291974;28;8753;-71
2022/01/05 14:54:13;;;;;;;;;7.50;7.50;;;;;;;;5240394;28;8788;-70
2022/01/05 14:56:45;;;;;;;;;16.33;15.33;;;;;;;;5240350;28;8773;-71
2022/01/05 14:59:17;;;;;;;;;11.67;9.67;;;;;;;;5273709;28;8886;-70
2022/01/05 15:01:48;;;;;;;;;3.67;3.67;;;;;;;;5273689;28;8949;-70
2022/01/05 15:04:19;;;;;;;;;28.00;23.00;;;;;;;;5256615;28;9043;-70
2022/01/05 15:06:51;;;;;;;;;18.00;17.00;;;;;;;;5273532;28;9243;-71
2022/01/05 15:09:44;;;;;;;;;15.00;14.67;;;;;;;;5291919;28;9309;-70
2022/01/05 15:12:15;;;;;;;;;18.67;16.67;;;;;;;;5291717;28;9042;-70
2022/01/05 15:14:46;;;;;;;;;19.00;16.67;;;;;;;;5273351;28;9328;-71
2022/01/05 15:17:17;;;;;;;;;7.00;7.00;;;;;;;;5256401;28;9397;-70
2022/01/05 15:24:17;;;;;;;;;18.00;18.00;;;;;;;;5291377;28;8725;-70
2022/01/05 15:31:11;;;;;;;;;12.25;12.25;;;;;;;;5291162;28;11384;-70
2022/01/05 15:33:42;;;;;;;;;11.00;10.00;;;;;;;;5273319;28;8788;-71
2022/01/05 15:40:37;;;;;;;;;14.75;12.50;;;;;;;;5291027;28;8724;-72
2022/01/05 15:43:08;;;;;;;;;13.67;13.00;;;;;;;;5273520;28;8768;-70
2022/01/05 15:45:39;;;;;;;;;12.50;12.50;;;;;;;;5271458;28;8896;-69
2022/01/05 15:48:10;;;;;;;;;14.33;12.67;;;;;;;;5255087;28;8804;-69
2022/01/05 15:55:07;;;;;;;;;18.00;16.75;;;;;;;;5290840;28;8705;-70
2022/01/05 16:02:59;;;;;;;;;6.75;6.75;;;;;;;;5272591;28;8796;-71
2022/01/05 16:05:30;;;;;;;;;14.33;13.67;;;;;;;;5255439;28;8777;-71
2022/01/05 16:08:01;;;;;;;;;14.33;13.00;;;;;;;;5255725;28;9552;-70
2022/01/05 16:10:32;;;;;;;;;13.67;13.00;;;;;;;;5238639;28;11033;-70
2022/01/05 16:13:03;;;;;;;;;5.75;5.75;;;;;;;;5238902;28;8937;-70
2022/01/05 16:15:34;;;;;;;;;7.67;7.67;;;;;;;;5290752;28;8884;-70